createdAt,value
2017-08-21T00:01:55.117Z,16.31
2017-08-21T00:04:00.516Z,16.34
2017-08-21T00:06:02.126Z,16.35
2017-08-21T00:08:03.601Z,16.26
2017-08-21T00:10:07.348Z,16.25
2017-08-21T00:12:08.851Z,16.25
2017-08-21T00:14:10.519Z,16.27
2017-08-21T00:16:12.042Z,16.20
2017-08-21T00:18:13.519Z,16.12
2017-08-21T00:20:15.328Z,16.20
2017-08-21T00:22:17.000Z,16.15
2017-08-21T00:24:18.709Z,16.12
2017-08-21T00:26:20.203Z,16.11
2017-08-21T00:28:21.729Z,16.20
2017-08-21T00:30:23.382Z,16.14
2017-08-21T00:32:25.008Z,16.07
2017-08-21T00:34:26.675Z,16.01
2017-08-21T00:36:28.207Z,15.93
2017-08-21T00:38:29.697Z,15.97
2017-08-21T00:40:31.281Z,16.00
2017-08-21T00:42:32.990Z,15.93
2017-08-21T00:44:37.383Z,15.92
2017-08-21T00:46:39.056Z,15.88
2017-08-21T00:48:40.575Z,15.88
2017-08-21T00:50:48.301Z,15.88
2017-08-21T00:52:49.716Z,15.89
2017-08-21T00:54:51.242Z,15.79
2017-08-21T00:57:01.456Z,15.76
2017-08-21T00:59:02.996Z,15.79
2017-08-21T01:01:46.121Z,15.89
2017-08-21T01:03:48.380Z,15.76
2017-08-21T01:05:49.858Z,15.68
2017-08-21T01:07:51.345Z,15.72
2017-08-21T01:09:52.931Z,15.67
2017-08-21T01:11:54.487Z,15.79
2017-08-21T01:13:56.015Z,15.68
2017-08-21T01:15:57.536Z,15.64
2017-08-21T01:18:03.281Z,15.67
2017-08-21T01:20:04.855Z,15.67
2017-08-21T01:22:08.048Z,15.61
2017-08-21T01:24:09.799Z,15.57
2017-08-21T01:26:11.425Z,15.57
2017-08-21T01:28:12.932Z,15.57
2017-08-21T01:30:14.579Z,15.59
2017-08-21T01:32:22.943Z,15.61
2017-08-21T01:34:24.543Z,15.60
2017-08-21T01:36:26.237Z,15.59
2017-08-21T01:38:27.808Z,15.54
2017-08-21T01:40:29.290Z,15.48
2017-08-21T01:42:36.751Z,15.42
2017-08-21T01:44:38.236Z,15.42
2017-08-21T01:46:39.775Z,15.43
2017-08-21T01:48:41.355Z,15.49
2017-08-21T01:50:42.882Z,15.39
2017-08-21T01:52:52.224Z,15.39
2017-08-21T01:54:53.710Z,15.27
2017-08-21T01:56:55.236Z,15.27
2017-08-21T01:59:02.692Z,15.33
2017-08-21T02:01:07.442Z,15.27
2017-08-21T02:03:17.427Z,15.31
